Time;durP1;ratioP1;P1;durP2;ratioP2;P2;SDS_P1;SDS_P2;PMS_P1;PMS_P2;Temp;Humidity;BMP_temperature;BMP_pressure;BME280_temperature;BME280_humidity;BME280_pressure;Samples;Min_cycle;Max_cycle;Signal;HPM_P1;HPM_P2
2021/08/14 00:02:09;;;;;;;;;;;19.30;99.90;;;;;;5066945;28;19978;-57
2021/08/14 00:04:58;;;;;;;;;;;19.30;99.90;;;;;;5074456;28;19931;-57
2021/08/14 00:07:48;;;;;;;;;;;19.30;99.90;;;;;;5076627;28;19925;-58
2021/08/14 00:10:37;;;;;;;;;;;19.20;99.90;;;;;;5087298;28;19924;-57
2021/08/14 00:13:26;;;;;;;;;;;19.30;99.90;;;;;;5071807;28;20089;-58
2021/08/14 00:16:17;;;;;;;;;;;19.30;99.90;;;;;;5064498;28;19932;-57
2021/08/14 00:19:07;;;;;;;;;;;19.30;99.90;;;;;;5071019;28;19928;-57
2021/08/14 00:25:09;;;;;;;;;;;19.20;99.90;;;;;;5068269;28;19925;-57
2021/08/14 00:27:57;;;;;;;;;;;19.10;99.90;;;;;;5068859;28;20017;-57
2021/08/14 00:30:48;;;;;;;;;;;19.10;99.90;;;;;;5064416;28;19932;-58
2021/08/14 00:33:37;;;;;;;;;;;19.10;99.90;;;;;;5067960;28;19931;-57
2021/08/14 00:36:27;;;;;;;;;;;19.00;99.90;;;;;;5068062;28;19924;-59
2021/08/14 00:39:16;;;;;;;;;;;19.00;99.90;;;;;;5066777;28;19925;-57
2021/08/14 00:42:05;;;;;;;;;;;18.90;99.90;;;;;;5070219;28;19931;-57
2021/08/14 00:44:54;;;;;;;;;;;18.90;99.90;;;;;;5063326;28;20021;-57
2021/08/14 00:47:43;;;;;;;;;;;18.80;99.90;;;;;;5070336;28;19963;-57
2021/08/14 00:50:32;;;;;;;;;;;18.80;99.90;;;;;;5065017;28;19928;-57
2021/08/14 00:53:21;;;;;;;;;;;18.80;99.90;;;;;;5070006;28;19964;-57
2021/08/14 00:56:11;;;;;;;;;;;18.80;99.90;;;;;;5069156;28;19924;-57
2021/08/14 00:59:00;;;;;;;;;;;18.70;99.90;;;;;;5069986;28;19924;-60
2021/08/14 01:01:51;;;;;;;;;;;18.70;99.90;;;;;;5063726;28;19931;-57
2021/08/14 01:04:40;;;;;;;;;;;18.70;99.90;;;;;;5068443;28;19924;-57
2021/08/14 01:07:29;;;;;;;;;;;18.80;99.90;;;;;;5067123;28;20028;-57
2021/08/14 01:10:19;;;;;;;;;;;18.80;99.90;;;;;;5065939;28;20321;-57
2021/08/14 01:13:08;;;;;;;;;;;18.80;99.90;;;;;;5069420;28;20322;-57
2021/08/14 01:15:57;;;;;;;;;;;18.80;99.90;;;;;;5065662;28;20322;-58
2021/08/14 01:18:47;;;;;;;;;;;18.70;99.90;;;;;;5069069;28;19931;-58
2021/08/14 01:21:35;;;;;;;;;;;18.70;99.90;;;;;;5069954;28;19986;-57
2021/08/14 01:24:24;;;;;;;;;;;18.60;99.90;;;;;;5067623;28;20372;-59
2021/08/14 01:27:14;;;;;;;;;;;18.60;99.90;;;;;;5065505;28;19950;-58
2021/08/14 01:30:03;;;;;;;;;;;18.60;99.90;;;;;;5066423;28;20022;-57
2021/08/14 01:32:52;;;;;;;;;;;18.60;99.90;;;;;;5069788;28;19938;-57
2021/08/14 01:35:42;;;;;;;;;;;18.60;99.90;;;;;;5069361;28;19924;-58
2021/08/14 01:38:30;;;;;;;;;;;18.70;99.90;;;;;;5068984;28;19925;-59
2021/08/14 01:41:19;;;;;;;;;;;18.70;99.90;;;;;;5086607;28;19932;-57
2021/08/14 01:44:09;;;;;;;;;;;18.80;99.90;;;;;;5067434;28;19924;-57
2021/08/14 01:46:58;;;;;;;;;;;18.80;99.90;;;;;;5063119;28;19975;-57
2021/08/14 01:49:47;;;;;;;;;;;18.70;99.90;;;;;;5067072;28;20038;-57
2021/08/14 01:52:36;;;;;;;;;;;18.60;99.90;;;;;;5069737;28;19963;-57
2021/08/14 01:55:24;;;;;;;;;;;18.50;99.90;;;;;;5069264;28;20354;-57
2021/08/14 01:58:13;;;;;;;;;;;18.50;99.90;;;;;;5064173;28;20039;-57
2021/08/14 02:01:09;;;;;;;;;;;18.40;99.90;;;;;;5061621;28;20468;-57
2021/08/14 02:03:59;;;;;;;;;;;18.30;99.90;;;;;;5073578;28;20413;-57
2021/08/14 02:06:47;;;;;;;;;;;18.30;99.90;;;;;;5073847;28;20026;-57
2021/08/14 02:09:36;;;;;;;;;;;18.30;99.90;;;;;;5073243;28;19966;-57
2021/08/14 02:12:25;;;;;;;;;;;18.20;99.90;;;;;;5073600;28;19939;-57
2021/08/14 02:15:13;;;;;;;;;;;18.20;99.90;;;;;;5064927;28;19929;-57
2021/08/14 02:18:03;;;;;;;;;;;18.10;99.90;;;;;;5074178;28;19978;-57
2021/08/14 02:20:51;;;;;;;;;;;18.10;99.90;;;;;;5074244;28;19968;-57
2021/08/14 02:23:41;;;;;;;;;;;18.00;99.90;;;;;;5073620;28;19930;-57
2021/08/14 02:26:29;;;;;;;;;;;18.00;99.90;;;;;;5071352;28;20299;-58
2021/08/14 02:29:18;;;;;;;;;;;18.00;99.90;;;;;;5071872;28;19925;-57
2021/08/14 02:32:07;;;;;;;;;;;18.00;99.90;;;;;;5069097;28;19932;-58
2021/08/14 02:34:58;;;;;;;;;;;18.00;99.90;;;;;;5073141;28;20376;-58
2021/08/14 02:37:48;;;;;;;;;;;17.90;99.90;;;;;;5074607;28;19924;-57
2021/08/14 02:40:37;;;;;;;;;;;17.90;99.90;;;;;;5073587;28;19986;-57
2021/08/14 02:43:26;;;;;;;;;;;17.90;99.90;;;;;;5072633;28;19924;-57
2021/08/14 02:46:15;;;;;;;;;;;17.80;99.90;;;;;;5066487;28;20022;-57
2021/08/14 02:49:04;;;;;;;;;;;17.70;99.90;;;;;;5098687;28;19928;-57
2021/08/14 02:51:54;;;;;;;;;;;17.70;99.90;;;;;;5074368;28;19962;-57
2021/08/14 02:54:43;;;;;;;;;;;17.60;99.90;;;;;;5071781;28;19932;-57
2021/08/14 02:57:31;;;;;;;;;;;17.60;99.90;;;;;;5074598;28;19951;-58
2021/08/14 03:00:20;;;;;;;;;;;17.50;99.90;;;;;;5065297;28;19925;-57
2021/08/14 03:03:08;;;;;;;;;;;17.50;99.90;;;;;;5073276;28;19924;-57
2021/08/14 03:05:58;;;;;;;;;;;17.50;99.90;;;;;;5073319;28;20402;-57
2021/08/14 03:08:49;;;;;;;;;;;17.40;99.90;;;;;;5068085;28;19966;-59
2021/08/14 03:11:38;;;;;;;;;;;17.40;99.90;;;;;;5072645;28;19924;-58
2021/08/14 03:14:28;;;;;;;;;;;17.30;99.90;;;;;;5070722;28;19975;-58
2021/08/14 03:17:16;;;;;;;;;;;17.30;99.90;;;;;;5066353;28;19924;-57
2021/08/14 03:20:06;;;;;;;;;;;17.20;99.90;;;;;;5063502;28;20026;-57
2021/08/14 03:22:54;;;;;;;;;;;17.20;99.90;;;;;;5073497;28;19959;-57
2021/08/14 03:25:44;;;;;;;;;;;17.10;99.90;;;;;;5073521;28;19931;-57
2021/08/14 03:28:33;;;;;;;;;;;17.10;99.90;;;;;;5072005;28;19931;-59
2021/08/14 03:31:22;;;;;;;;;;;17.10;99.90;;;;;;5068419;28;19928;-57
2021/08/14 03:34:11;;;;;;;;;;;17.00;99.90;;;;;;5073825;28;19932;-58
2021/08/14 03:36:59;;;;;;;;;;;17.00;99.90;;;;;;5066989;28;20391;-57
2021/08/14 03:39:48;;;;;;;;;;;17.00;99.90;;;;;;5071786;28;19935;-57
2021/08/14 03:42:39;;;;;;;;;;;16.90;99.90;;;;;;5069727;28;19950;-57
2021/08/14 03:48:45;;;;;;;;;;;16.90;99.90;;;;;;5074311;28;19928;-57
2021/08/14 03:51:34;;;;;;;;;;;16.80;99.90;;;;;;5063104;28;19928;-59
2021/08/14 03:54:22;;;;;;;;;;;16.90;99.90;;;;;;5073906;28;19940;-59
2021/08/14 03:57:11;;;;;;;;;;;16.90;99.90;;;;;;5073769;28;20281;-57
2021/08/14 04:00:01;;;;;;;;;;;16.90;99.90;;;;;;5066052;28;19930;-60
2021/08/14 04:03:09;;;;;;;;;;;16.90;99.90;;;;;;5049409;28;19931;-58
2021/08/14 04:05:59;;;;;;;;;;;16.80;99.90;;;;;;5047243;28;19925;-58
2021/08/14 04:08:48;;;;;;;;;;;16.80;99.90;;;;;;5051066;28;19924;-57
2021/08/14 04:11:36;;;;;;;;;;;16.80;99.90;;;;;;5049653;28;19929;-57
2021/08/14 04:14:24;;;;;;;;;;;16.80;99.90;;;;;;5048939;28;20019;-59
2021/08/14 04:17:16;;;;;;;;;;;16.70;99.90;;;;;;5044806;28;19960;-58
2021/08/14 04:20:06;;;;;;;;;;;16.70;99.90;;;;;;5049584;28;20266;-57
2021/08/14 04:22:54;;;;;;;;;;;16.70;99.90;;;;;;5042934;28;19960;-57
2021/08/14 04:25:43;;;;;;;;;;;16.70;99.90;;;;;;5049493;28;19925;-57
2021/08/14 04:28:32;;;;;;;;;;;16.70;99.90;;;;;;5052967;28;19928;-57
2021/08/14 04:31:22;;;;;;;;;;;16.70;99.90;;;;;;5052675;28;19925;-57
2021/08/14 04:34:12;;;;;;;;;;;16.70;99.90;;;;;;5080776;28;19980;-61
2021/08/14 04:37:00;;;;;;;;;;;16.70;99.90;;;;;;5065228;28;19970;-57
2021/08/14 04:39:49;;;;;;;;;;;16.80;99.90;;;;;;5064555;28;20352;-57
2021/08/14 04:42:38;;;;;;;;;;;16.80;99.90;;;;;;5076109;28;19931;-58
2021/08/14 04:45:27;;;;;;;;;;;16.90;99.90;;;;;;5078756;28;19980;-58
2021/08/14 04:48:43;;;;;;;;;;;16.90;99.90;;;;;;5088687;28;19924;-57
2021/08/14 04:51:33;;;;;;;;;;;16.90;99.90;;;;;;5092638;28;19974;-58
2021/08/14 04:54:22;;;;;;;;;;;17.00;99.90;;;;;;5075283;28;19947;-57
2021/08/14 04:57:10;;;;;;;;;;;17.00;99.90;;;;;;5090338;28;19924;-58
2021/08/14 04:59:59;;;;;;;;;;;17.10;99.90;;;;;;5088429;28;19924;-58
2021/08/14 05:02:48;;;;;;;;;;;17.10;99.90;;;;;;5074498;28;19925;-57
2021/08/14 05:05:39;;;;;;;;;;;17.20;99.90;;;;;;5081598;28;19928;-58
2021/08/14 05:08:29;;;;;;;;;;;17.30;99.90;;;;;;5077323;28;20340;-57
2021/08/14 05:11:18;;;;;;;;;;;17.30;99.90;;;;;;5081119;28;20230;-58
2021/08/14 05:14:07;;;;;;;;;;;17.40;99.90;;;;;;5079642;28;19928;-57
2021/08/14 05:16:55;;;;;;;;;;;17.50;99.90;;;;;;5073071;28;19932;-57
2021/08/14 05:19:44;;;;;;;;;;;17.60;99.90;;;;;;5081803;28;20021;-60
2021/08/14 05:22:32;;;;;;;;;;;17.70;99.90;;;;;;5084958;28;20276;-57
2021/08/14 05:25:23;;;;;;;;;;;17.90;99.90;;;;;;5088043;28;20372;-57
2021/08/14 05:28:11;;;;;;;;;;;18.00;99.90;;;;;;5081954;28;19979;-59
2021/08/14 05:31:01;;;;;;;;;;;18.10;99.90;;;;;;5073243;28;19928;-57
2021/08/14 05:33:50;;;;;;;;;;;18.20;99.90;;;;;;5070600;28;19982;-57
2021/08/14 05:36:39;;;;;;;;;;;18.30;99.90;;;;;;5079005;28;19938;-57
2021/08/14 05:39:27;;;;;;;;;;;18.40;99.90;;;;;;5070931;28;19970;-57
2021/08/14 05:42:17;;;;;;;;;;;18.70;99.90;;;;;;5071539;28;20288;-57
2021/08/14 05:45:07;;;;;;;;;;;18.80;99.90;;;;;;5068458;28;19993;-56
2021/08/14 05:47:56;;;;;;;;;;;18.80;99.90;;;;;;5073325;28;19925;-56
2021/08/14 05:50:45;;;;;;;;;;;18.90;99.90;;;;;;5079453;28;19924;-56
2021/08/14 05:53:34;;;;;;;;;;;19.00;99.90;;;;;;5078211;28;20381;-56
2021/08/14 05:56:22;;;;;;;;;;;19.10;99.90;;;;;;5082762;28;19960;-56
2021/08/14 05:59:12;;;;;;;;;;;19.30;99.90;;;;;;5079875;28;19990;-56
2021/08/14 06:02:03;;;;;;;;;;;19.40;99.90;;;;;;5071178;28;19924;-56
2021/08/14 06:04:53;;;;;;;;;;;19.60;99.90;;;;;;5069020;28;19928;-56
2021/08/14 06:07:42;;;;;;;;;;;19.90;99.90;;;;;;5079202;28;19928;-56
2021/08/14 06:10:30;;;;;;;;;;;20.20;99.90;;;;;;5067008;28;20081;-58
2021/08/14 06:13:19;;;;;;;;;;;20.60;99.90;;;;;;5076523;28;19987;-56
2021/08/14 06:16:12;;;;;;;;;;;21.30;99.90;;;;;;5072465;28;19935;-56
2021/08/14 06:19:00;;;;;;;;;;;21.60;99.90;;;;;;5073315;28;19924;-57
2021/08/14 06:21:49;;;;;;;;;;;21.80;99.90;;;;;;5076000;28;19954;-56
2021/08/14 06:24:38;;;;;;;;;;;22.40;99.90;;;;;;5077188;28;19987;-57
2021/08/14 06:27:26;;;;;;;;;;;23.00;99.90;;;;;;5071583;28;19931;-59
2021/08/14 06:30:15;;;;;;;;;;;23.70;99.90;;;;;;5077054;28;20395;-56
2021/08/14 06:33:06;;;;;;;;;;;24.30;99.90;;;;;;5078074;28;19983;-57
2021/08/14 06:36:20;;;;;;;;;;;25.40;99.90;;;;;;5074898;28;19931;-57
2021/08/14 06:39:08;;;;;;;;;;;25.80;99.90;;;;;;5076781;28;19936;-56
2021/08/14 06:45:10;;;;;;;;;;;26.50;99.90;;;;;;5073443;28;19947;-56
2021/08/14 06:47:58;;;;;;;;;;;26.90;99.90;;;;;;5079536;28;19924;-57
2021/08/14 06:50:51;;;;;;;;;;;26.90;99.90;;;;;;5078137;28;19932;-57
2021/08/14 06:53:39;;;;;;;;;;;26.90;99.90;;;;;;5087126;28;20304;-59
2021/08/14 06:56:28;;;;;;;;;;;27.60;99.90;;;;;;5078080;28;19928;-57
2021/08/14 06:59:16;;;;;;;;;;;27.90;99.90;;;;;;5081721;28;19935;-57
2021/08/14 07:02:05;;;;;;;;;;;28.30;99.90;;;;;;5072897;28;19978;-57
2021/08/14 07:04:54;;;;;;;;;;;28.20;99.70;;;;;;5075863;28;20338;-56
2021/08/14 07:07:44;;;;;;;;;;;28.40;99.10;;;;;;5080913;28;19931;-60
2021/08/14 07:10:34;;;;;;;;;;;28.40;98.70;;;;;;5067511;28;20420;-57
2021/08/14 07:13:24;;;;;;;;;;;28.20;99.00;;;;;;5075458;28;19925;-57
2021/08/14 07:16:12;;;;;;;;;;;28.40;99.40;;;;;;5070490;28;20391;-56
2021/08/14 07:19:01;;;;;;;;;;;29.10;98.10;;;;;;5071675;28;19928;-56
2021/08/14 07:21:50;;;;;;;;;;;29.60;96.80;;;;;;5075486;28;19937;-57
2021/08/14 07:24:40;;;;;;;;;;;30.00;96.30;;;;;;5079909;28;20019;-56
2021/08/14 07:27:28;;;;;;;;;;;29.30;96.60;;;;;;5075023;28;20010;-57
2021/08/14 07:30:17;;;;;;;;;;;28.90;97.30;;;;;;5070914;28;19932;-56
2021/08/14 07:33:06;;;;;;;;;;;29.10;97.40;;;;;;5084681;28;20006;-57
2021/08/14 07:35:54;;;;;;;;;;;29.30;96.90;;;;;;5079266;28;19928;-56
2021/08/14 07:39:07;;;;;;;;;;;29.90;95.90;;;;;;5081394;28;19946;-56
2021/08/14 07:41:56;;;;;;;;;;;32.00;94.30;;;;;;5075789;28;20003;-56
2021/08/14 07:45:15;;;;;;;;;;;34.50;89.90;;;;;;5062967;28;19977;-57
2021/08/14 07:48:04;;;;;;;;;;;32.60;88.50;;;;;;5080314;28;20016;-57
2021/08/14 07:50:55;;;;;;;;;;;32.30;90.40;;;;;;5084995;28;20403;-57
2021/08/14 07:53:44;;;;;;;;;;;32.50;90.70;;;;;;5091535;28;19938;-58
2021/08/14 07:56:33;;;;;;;;;;;33.10;88.40;;;;;;5087778;28;19924;-58
2021/08/14 07:59:23;;;;;;;;;;;35.40;81.90;;;;;;5080274;28;19932;-58
2021/08/14 08:02:12;;;;;;;;;;;34.40;79.80;;;;;;5079421;28;19924;-57
2021/08/14 08:05:01;;;;;;;;;;;32.70;85.90;;;;;;5079256;28;19932;-57
2021/08/14 08:07:51;;;;;;;;;;;31.40;90.30;;;;;;5086021;28;19931;-57
2021/08/14 08:10:39;;;;;;;;;;;31.70;90.30;;;;;;5088132;28;19924;-59
2021/08/14 08:13:28;;;;;;;;;;;31.10;90.80;;;;;;5069943;28;19976;-59
2021/08/14 08:16:18;;;;;;;;;;;32.00;90.00;;;;;;5073374;28;19925;-58
2021/08/14 08:19:06;;;;;;;;;;;32.20;88.90;;;;;;5086047;28;20347;-56
2021/08/14 08:21:55;;;;;;;;;;;32.90;87.90;;;;;;5076483;28;19959;-57
2021/08/14 08:24:43;;;;;;;;;;;32.70;86.80;;;;;;5088260;28;19951;-60
2021/08/14 08:27:32;;;;;;;;;;;32.70;86.40;;;;;;5086180;28;19924;-57
2021/08/14 08:30:20;;;;;;;;;;;33.90;85.10;;;;;;5077645;28;20011;-59
2021/08/14 08:33:17;;;;;;;;;;;34.20;82.80;;;;;;5076528;28;20385;-58
2021/08/14 08:36:05;;;;;;;;;;;35.10;78.40;;;;;;5071180;28;19924;-58
2021/08/14 08:38:54;;;;;;;;;;;36.90;73.40;;;;;;5086287;28;19924;-57
2021/08/14 08:41:42;;;;;;;;;;;39.50;64.10;;;;;;5083739;28;19971;-58
2021/08/14 08:44:31;;;;;;;;;;;40.80;57.20;;;;;;5085838;28;19931;-58
2021/08/14 08:47:21;;;;;;;;;;;38.60;57.20;;;;;;5082130;28;20010;-58
2021/08/14 08:50:14;;;;;;;;;;;38.70;59.50;;;;;;5081403;28;20729;-57
2021/08/14 08:53:27;;;;;;;;;;;40.20;55.30;;;;;;5079741;28;19924;-57
2021/08/14 08:56:16;;;;;;;;;;;41.50;52.80;;;;;;5078422;28;19962;-57
2021/08/14 08:59:05;;;;;;;;;;;38.60;56.60;;;;;;5076840;28;20034;-57
2021/08/14 09:01:54;;;;;;;;;;;36.00;58.00;;;;;;5081324;28;19935;-57
2021/08/14 09:04:43;;;;;;;;;;;34.30;64.90;;;;;;5083021;28;19924;-60
2021/08/14 09:07:34;;;;;;;;;;;33.80;66.30;;;;;;5060414;28;20010;-57
2021/08/14 09:10:24;;;;;;;;;;;34.80;67.00;;;;;;5059711;28;19928;-58
2021/08/14 09:13:14;;;;;;;;;;;37.70;57.60;;;;;;5056492;28;19924;-59
2021/08/14 09:16:17;;;;;;;;;;;40.50;52.20;;;;;;5054100;28;19932;-58
2021/08/14 09:19:05;;;;;;;;;;;41.40;46.70;;;;;;5067015;28;20422;-57
2021/08/14 09:21:54;;;;;;;;;;;39.60;45.30;;;;;;5064727;28;19932;-58
2021/08/14 09:24:44;;;;;;;;;;;39.30;48.80;;;;;;5067086;28;19924;-58
2021/08/14 09:27:48;;;;;;;;;;;41.10;47.20;;;;;;5065801;28;20026;-57
2021/08/14 09:30:58;;;;;;;;;;;40.00;46.10;;;;;;5054782;28;19947;-59
2021/08/14 09:33:47;;;;;;;;;;;37.40;51.20;;;;;;5059224;28;19925;-58
2021/08/14 09:36:36;;;;;;;;;;;38.60;51.80;;;;;;5061258;28;19947;-57
2021/08/14 09:39:24;;;;;;;;;;;37.70;49.80;;;;;;5047650;28;19925;-58
2021/08/14 09:42:14;;;;;;;;;;;38.00;52.10;;;;;;5063095;28;19932;-58
2021/08/14 09:45:13;;;;;;;;;;;35.90;56.90;;;;;;5059500;28;20013;-58
2021/08/14 09:48:28;;;;;;;;;;;32.60;63.70;;;;;;5062412;28;19936;-57
2021/08/14 09:51:27;;;;;;;;;;;31.40;71.30;;;;;;5071865;28;19935;-57
2021/08/14 09:54:16;;;;;;;;;;;32.00;69.60;;;;;;5073240;28;19925;-57
2021/08/14 09:57:14;;;;;;;;;;;31.70;70.80;;;;;;5054497;28;19925;-57
2021/08/14 10:00:06;;;;;;;;;;;31.50;72.90;;;;;;5039699;28;19956;-57
2021/08/14 10:02:59;;;;;;;;;;;30.80;73.10;;;;;;5063387;28;19947;-57
2021/08/14 10:05:51;;;;;;;;;;;30.50;74.10;;;;;;5059818;28;20262;-57
2021/08/14 10:08:40;;;;;;;;;;;30.10;78.00;;;;;;5064865;28;19925;-58
2021/08/14 10:11:28;;;;;;;;;;;29.60;78.50;;;;;;5062046;28;19925;-57
2021/08/14 10:14:20;;;;;;;;;;;29.20;82.30;;;;;;5060979;28;20371;-58
2021/08/14 10:17:10;;;;;;;;;;;29.20;85.10;;;;;;5067739;28;19931;-57
2021/08/14 10:19:59;;;;;;;;;;;29.40;84.20;;;;;;5062250;28;19924;-57
2021/08/14 10:22:48;;;;;;;;;;;30.00;77.70;;;;;;5053227;28;20264;-57
2021/08/14 10:25:37;;;;;;;;;;;29.60;74.80;;;;;;5075212;28;19924;-58
2021/08/14 10:28:41;;;;;;;;;;;30.10;76.30;;;;;;5053519;28;19925;-58
2021/08/14 10:31:50;;;;;;;;;;;30.70;73.90;;;;;;5055762;28;19935;-57
2021/08/14 10:34:38;;;;;;;;;;;31.50;69.60;;;;;;5067014;28;19932;-57
2021/08/14 10:37:35;;;;;;;;;;;31.60;69.20;;;;;;5066982;28;20360;-57
2021/08/14 10:40:23;;;;;;;;;;;30.60;67.40;;;;;;5066554;28;19924;-57
2021/08/14 10:43:54;;;;;;;;;;;29.90;70.90;;;;;;5069602;28;20020;-57
2021/08/14 10:46:45;;;;;;;;;;;29.50;72.10;;;;;;5063617;28;20277;-58
2021/08/14 10:49:46;;;;;;;;;;;29.60;72.70;;;;;;5073915;28;20348;-57
2021/08/14 10:52:35;;;;;;;;;;;30.00;72.70;;;;;;5064002;28;19930;-57
2021/08/14 10:55:33;;;;;;;;;;;30.50;72.40;;;;;;5063884;28;20339;-57
2021/08/14 10:58:23;;;;;;;;;;;30.80;69.20;;;;;;5067248;28;19929;-59
2021/08/14 11:01:30;;;;;;;;;;;30.20;67.60;;;;;;5054086;28;20311;-57
2021/08/14 11:04:35;;;;;;;;;;;30.40;69.40;;;;;;5067013;28;20011;-57
2021/08/14 11:07:32;;;;;;;;;;;30.20;70.60;;;;;;5081995;28;20245;-58
2021/08/14 11:10:30;;;;;;;;;;;30.20;71.10;;;;;;5085685;28;19932;-57
2021/08/14 11:13:40;;;;;;;;;;;30.80;70.30;;;;;;5079595;28;20058;-57
2021/08/14 11:16:47;;;;;;;;;;;30.40;71.30;;;;;;5080529;28;19960;-57
2021/08/14 11:19:46;;;;;;;;;;;30.50;68.60;;;;;;5090834;28;19943;-57
2021/08/14 11:22:43;;;;;;;;;;;30.40;67.40;;;;;;5092100;28;19931;-58
2021/08/14 11:25:34;;;;;;;;;;;29.60;70.30;;;;;;5086979;28;19924;-57
2021/08/14 11:28:25;;;;;;;;;;;29.50;72.00;;;;;;5081266;28;19951;-57
2021/08/14 11:31:16;;;;;;;;;;;29.50;71.30;;;;;;5075638;28;19964;-57
2021/08/14 11:34:12;;;;;;;;;;;29.60;72.40;;;;;;5080058;28;19924;-57
2021/08/14 11:37:00;;;;;;;;;;;29.30;71.90;;;;;;5083192;28;20304;-57
2021/08/14 11:39:57;;;;;;;;;;;29.00;70.30;;;;;;5082682;28;19924;-59
2021/08/14 11:42:54;;;;;;;;;;;29.10;72.30;;;;;;5091913;28;20015;-57
2021/08/14 11:46:08;;;;;;;;;;;28.90;72.10;;;;;;5079241;28;19938;-56
2021/08/14 11:49:00;;;;;;;;;;;28.90;73.60;;;;;;5079604;28;20007;-56
2021/08/14 11:52:00;;;;;;;;;;;28.90;73.80;;;;;;5078530;28;19936;-57
2021/08/14 11:54:55;;;;;;;;;;;29.00;72.60;;;;;;5083470;28;19935;-57
2021/08/14 11:57:44;;;;;;;;;;;28.90;69.50;;;;;;5082481;28;19924;-57
2021/08/14 12:00:34;;;;;;;;;;;29.00;68.90;;;;;;5078725;28;20015;-59
2021/08/14 12:03:23;;;;;;;;;;;29.00;67.50;;;;;;5086496;28;20082;-57
2021/08/14 12:06:13;;;;;;;;;;;29.10;68.40;;;;;;5075806;28;19932;-57
2021/08/14 12:09:02;;;;;;;;;;;29.10;69.20;;;;;;5087457;28;19931;-57
2021/08/14 12:11:52;;;;;;;;;;;28.90;68.50;;;;;;5088641;28;19924;-58
2021/08/14 12:14:43;;;;;;;;;;;29.00;66.80;;;;;;5084240;28;19931;-57
2021/08/14 12:17:41;;;;;;;;;;;29.10;65.20;;;;;;5102896;28;19924;-58
2021/08/14 12:20:30;;;;;;;;;;;29.20;64.20;;;;;;5098599;28;19924;-57
2021/08/14 12:23:23;;;;;;;;;;;29.70;65.20;;;;;;5077395;28;19932;-57
2021/08/14 12:26:24;;;;;;;;;;;30.50;62.80;;;;;;5084709;28;19931;-57
2021/08/14 12:29:15;;;;;;;;;;;30.10;63.50;;;;;;5080244;28;19935;-58
2021/08/14 12:32:10;;;;;;;;;;;30.00;65.20;;;;;;5072673;28;19929;-57
2021/08/14 12:35:19;;;;;;;;;;;30.00;64.30;;;;;;5083303;28;19935;-57
2021/08/14 12:38:08;;;;;;;;;;;30.00;64.00;;;;;;5081233;28;19951;-57
2021/08/14 12:40:57;;;;;;;;;;;29.80;63.40;;;;;;5087619;28;20241;-58
2021/08/14 12:43:46;;;;;;;;;;;29.70;64.60;;;;;;5075968;28;19925;-57
2021/08/14 12:46:35;;;;;;;;;;;29.80;65.00;;;;;;5071814;28;19925;-56
2021/08/14 12:49:26;;;;;;;;;;;30.00;63.90;;;;;;5078827;28;19948;-57
2021/08/14 12:52:17;;;;;;;;;;;29.70;61.10;;;;;;5078798;28;20418;-56
2021/08/14 12:55:06;;;;;;;;;;;29.70;61.10;;;;;;5081491;28;19967;-57
2021/08/14 12:57:54;;;;;;;;;;;29.40;59.70;;;;;;5080858;28;19924;-57
2021/08/14 13:00:45;;;;;;;;;;;29.60;61.80;;;;;;5079029;28;19924;-56
2021/08/14 13:03:34;;;;;;;;;;;29.50;60.40;;;;;;5078383;28;19994;-56
2021/08/14 13:06:24;;;;;;;;;;;29.60;61.50;;;;;;5088621;28;19928;-56
2021/08/14 13:09:13;;;;;;;;;;;29.80;61.80;;;;;;5086220;28;19964;-57
2021/08/14 13:12:01;;;;;;;;;;;29.70;60.60;;;;;;5090173;28;20385;-56
2021/08/14 13:14:50;;;;;;;;;;;29.60;61.10;;;;;;5087557;28;19928;-57
2021/08/14 13:17:39;;;;;;;;;;;29.60;61.50;;;;;;5083529;28;20322;-57
2021/08/14 13:20:28;;;;;;;;;;;29.50;59.30;;;;;;5085545;28;20367;-58
2021/08/14 13:23:18;;;;;;;;;;;29.70;59.50;;;;;;5076966;28;20374;-58
2021/08/14 13:26:06;;;;;;;;;;;29.60;57.80;;;;;;5081462;28;19924;-56
2021/08/14 13:28:55;;;;;;;;;;;29.60;59.10;;;;;;5076620;28;19935;-62
2021/08/14 13:31:44;;;;;;;;;;;29.40;55.30;;;;;;5077464;28;19924;-56
2021/08/14 13:34:36;;;;;;;;;;;29.60;57.20;;;;;;5081150;28;19928;-57
2021/08/14 13:37:25;;;;;;;;;;;29.70;56.30;;;;;;5087524;28;19928;-57
2021/08/14 13:40:16;;;;;;;;;;;29.80;56.50;;;;;;5084528;28;20356;-59
2021/08/14 13:43:08;;;;;;;;;;;29.90;57.50;;;;;;5082543;28;19965;-57
2021/08/14 13:49:11;;;;;;;;;;;29.90;58.50;;;;;;5078618;28;19971;-58
2021/08/14 13:52:00;;;;;;;;;;;29.70;57.70;;;;;;5081019;28;19924;-57
2021/08/14 13:54:48;;;;;;;;;;;29.70;57.20;;;;;;5084306;28;19928;-57
2021/08/14 13:57:38;;;;;;;;;;;29.80;56.50;;;;;;5076571;28;20364;-57
2021/08/14 14:00:27;;;;;;;;;;;29.90;56.70;;;;;;5082170;28;19924;-58
2021/08/14 14:03:15;;;;;;;;;;;29.80;56.30;;;;;;5087856;28;19974;-57
2021/08/14 14:06:05;;;;;;;;;;;30.10;54.70;;;;;;5083025;28;19964;-57
2021/08/14 14:08:53;;;;;;;;;;;30.30;55.30;;;;;;5091279;28;19934;-59
2021/08/14 14:11:42;;;;;;;;;;;30.40;54.70;;;;;;5085879;28;20418;-57
2021/08/14 14:14:32;;;;;;;;;;;30.50;54.70;;;;;;5091079;28;19934;-58
2021/08/14 14:17:22;;;;;;;;;;;30.40;53.90;;;;;;5088792;28;19925;-57
2021/08/14 14:20:11;;;;;;;;;;;30.30;54.30;;;;;;5086309;28;19924;-58
2021/08/14 14:22:59;;;;;;;;;;;30.00;54.30;;;;;;5082109;28;19997;-58
2021/08/14 14:25:48;;;;;;;;;;;30.00;54.40;;;;;;5090741;28;19944;-57
2021/08/14 14:28:37;;;;;;;;;;;30.00;54.80;;;;;;5090278;28;19975;-57
2021/08/14 14:31:27;;;;;;;;;;;30.10;53.70;;;;;;5073266;28;19935;-58
2021/08/14 14:34:16;;;;;;;;;;;30.00;54.70;;;;;;5093449;28;19928;-57
2021/08/14 14:37:15;;;;;;;;;;;30.10;53.60;;;;;;5094156;28;19935;-58
2021/08/14 14:40:04;;;;;;;;;;;30.20;53.70;;;;;;5090516;28;19966;-58
2021/08/14 14:42:53;;;;;;;;;;;30.30;53.90;;;;;;5087289;28;19924;-57
2021/08/14 14:45:43;;;;;;;;;;;30.50;52.40;;;;;;5078821;28;19931;-57
2021/08/14 14:48:35;;;;;;;;;;;30.40;52.00;;;;;;5094563;28;20031;-57
2021/08/14 14:51:24;;;;;;;;;;;30.40;52.30;;;;;;5096531;28;19974;-57
2021/08/14 14:54:12;;;;;;;;;;;30.70;53.30;;;;;;5085795;28;20019;-56
2021/08/14 14:57:01;;;;;;;;;;;30.70;52.40;;;;;;5090111;28;19928;-57
2021/08/14 14:59:49;;;;;;;;;;;30.60;53.40;;;;;;5092894;28;19931;-58
2021/08/14 15:02:43;;;;;;;;;;;30.60;52.80;;;;;;5083707;28;19925;-59
2021/08/14 15:05:34;;;;;;;;;;;30.30;53.00;;;;;;5088987;28;19924;-57
2021/08/14 15:08:48;;;;;;;;;;;30.30;53.80;;;;;;5086982;28;19928;-57
2021/08/14 15:11:36;;;;;;;;;;;30.50;52.90;;;;;;5084201;28;19928;-57
2021/08/14 15:14:25;;;;;;;;;;;30.70;52.90;;;;;;5088379;28;20013;-57
2021/08/14 15:17:14;;;;;;;;;;;30.80;52.80;;;;;;5066333;28;19931;-56
2021/08/14 15:23:19;;;;;;;;;;;31.00;53.80;;;;;;5077220;28;19940;-56
2021/08/14 15:26:08;;;;;;;;;;;30.80;54.00;;;;;;5072779;28;19936;-56
2021/08/14 15:28:57;;;;;;;;;;;30.90;53.80;;;;;;5073085;28;20329;-57
2021/08/14 15:31:45;;;;;;;;;;;31.20;52.80;;;;;;5071875;28;20392;-59
2021/08/14 15:34:35;;;;;;;;;;;30.90;54.10;;;;;;5077574;28;19938;-56
2021/08/14 15:37:23;;;;;;;;;;;32.00;53.10;;;;;;5082046;28;20037;-56
2021/08/14 15:40:13;;;;;;;;;;;32.90;51.70;;;;;;5080275;28;19931;-57
2021/08/14 15:43:02;;;;;;;;;;;32.70;50.80;;;;;;5083913;28;19931;-57
2021/08/14 15:45:50;;;;;;;;;;;32.80;50.80;;;;;;5067669;28;20407;-56
2021/08/14 15:49:04;;;;;;;;;;;32.40;52.50;;;;;;5084024;28;19924;-57
2021/08/14 15:51:53;;;;;;;;;;;32.10;53.20;;;;;;5071517;28;20051;-57
2021/08/14 15:54:42;;;;;;;;;;;32.00;53.30;;;;;;5069975;28;19924;-57
2021/08/14 15:57:31;;;;;;;;;;;31.30;54.80;;;;;;5075683;28;19974;-57
2021/08/14 16:00:20;;;;;;;;;;;31.20;55.80;;;;;;5065116;28;19924;-58
2021/08/14 16:03:09;;;;;;;;;;;31.10;55.70;;;;;;5072834;28;20053;-58
2021/08/14 16:06:01;;;;;;;;;;;31.00;56.10;;;;;;5070306;28;19939;-57
2021/08/14 16:08:49;;;;;;;;;;;31.00;56.30;;;;;;5064406;28;20036;-57
2021/08/14 16:11:38;;;;;;;;;;;30.80;57.50;;;;;;5069433;28;19932;-57
2021/08/14 16:14:28;;;;;;;;;;;30.60;58.40;;;;;;5070132;28;20040;-59
2021/08/14 16:17:17;;;;;;;;;;;30.50;59.20;;;;;;5061820;28;20178;-57
2021/08/14 16:20:06;;;;;;;;;;;30.30;59.40;;;;;;5067520;28;19943;-57
2021/08/14 16:22:54;;;;;;;;;;;30.20;59.70;;;;;;5064576;28;20397;-57
2021/08/14 16:25:43;;;;;;;;;;;30.20;60.80;;;;;;5081363;28;19932;-57
2021/08/14 16:28:32;;;;;;;;;;;30.10;60.30;;;;;;5066992;28;19930;-57
2021/08/14 16:31:23;;;;;;;;;;;30.00;60.90;;;;;;5064605;28;19924;-59
2021/08/14 16:34:12;;;;;;;;;;;30.00;61.30;;;;;;5067647;28;20390;-57
2021/08/14 16:37:01;;;;;;;;;;;29.90;62.00;;;;;;5063556;28;19925;-57
2021/08/14 16:39:49;;;;;;;;;;;29.90;61.80;;;;;;5068352;28;20330;-57
2021/08/14 16:42:38;;;;;;;;;;;30.00;62.30;;;;;;5066466;28;19932;-57
2021/08/14 16:45:27;;;;;;;;;;;30.00;61.20;;;;;;5058711;28;19929;-57
2021/08/14 16:48:17;;;;;;;;;;;30.00;61.30;;;;;;5067857;28;20001;-57
2021/08/14 16:51:06;;;;;;;;;;;29.90;60.50;;;;;;5074555;28;19932;-57